Tiempo atmosférico en la estación meteorológica de La Victoria de Acentejo, Santa Cruz de Tenerife (567 m.)



Fecha
DESCASC
Temp. máxima en grados centígrados (hora)
DESCASC
Temp. mínima en grados centígrados (hora)
DESCASC
Temp. media en grados centígrados
DESCASC
Racha de viento máxima en m/sg (hora)
DESCASC
Velocidad máxima media en intervalos de 10 minutos(hora)
DESCASC
Precipitaciones diarias en mm
DESCASC
Precipitaciones de 00:00 a 06:00 en mm
DESCASC
Precipitaciones de 06:00 a 12:00 en mm
DESCASC
Precipitaciones de 12:00 a 18:00 en mm
DESCASC
Precipitaciones de 18:00 a 24:00 en mm
DESCASC
30-07-2019 19.3 (14:30) 16.1 (00:00) 17.7 6.39 (15:40) 4.17 (05:20) 7.2 0 6.8 0.4 0
10-08-2019 25.2 (17:50) 15.9 (00:00) 20.6 6.67 (16:20) 3.61 (12:40) 0 0 0 0 0
24-08-2019 26.3 (16:10) 16.2 (00:00) 21.3 3.89 (05:30) 2.22 (14:50) 0 0 0 0 0
23-08-2019 23 (15:40) 15.5 (00:00) 19.3 6.39 (13:40) 3.61 (13:40) 0 0 0 0 0
22-08-2019 22.8 (17:20) 14 (00:00) 18.4 6.67 (14:30) 3.89 (14:30) 0 0 0 0 0
21-08-2019 21.8 (13:30) 15 (00:00) 18.4 8.61 (15:00) 5.83 (17:20) 0 0 0 0 0
20-08-2019 24.7 (13:50) 14.6 (00:00) 19.7 5.56 (17:30) 3.61 (14:40) 0 0 0 0 0
19-08-2019 29.1 (18:50) 16.8 (00:00) 22.9 5.56 (12:40) 3.61 (08:40) 0 0 0 0 0
18-08-2019 28.7 (19:10) 19 (00:00) 23.9 4.72 (05:10) 2.5 (04:10) 0 0 0 0 0
17-08-2019 28.1 (18:00) 17 (00:00) 22.6 4.72 (16:00) 2.78 (23:00) 0 0 0 0 0
16-08-2019 22.1 (12:10) 15.6 (00:00) 18.9 4.72 (02:10) 2.5 (09:10) 0 0 0 0 0
15-08-2019 22.3 (14:30) 13.1 (00:00) 17.7 6.67 (16:10) 4.17 (14:50) 0 0 0 0 0
14-08-2019 21.3 (14:00) 13.5 (00:00) 17.4 7.5 (16:30) 3.89 (03:00) 0 0 0 0 0
13-08-2019 21.4 (14:00) 13.9 (00:00) 17.6 8.61 (16:10) 5.28 (15:50) 0 0 0 0 0
12-08-2019 22.2 (16:20) 15.3 (00:00) 18.8 9.44 (18:10) 5.56 (15:10) 0 0 0 0 0
11-08-2019 23 (14:40) 16.5 (00:00) 19.8 9.17 (15:10) 5.83 (15:00) 0 0 0 0 0
26-07-2019 22.5 (14:10) 14.6 (00:00) 18.6 8.33 (14:50) 5 (15:30) 0 0 0 0 0
09-08-2019 25.1 (18:50) 15.3 (00:00) 20.2 5 (14:10) 2.78 (14:20) 0 0 0 0 0
08-08-2019 24.2 (18:00) 14.2 (00:00) 19.2 5.28 (16:10) 2.78 (04:00) 0 0 0 0 0
07-08-2019 22.9 (16:30) 14.9 (00:00) 18.9 7.5 (13:00) 4.72 (08:20) 0 0 0 0 0
06-08-2019 21.9 (14:40) 15.3 (00:00) 18.6 7.5 (14:50) 4.17 (07:40) 0 0 0 0 0
05-08-2019 22.8 (13:10) 16.3 (00:00) 19.5 8.06 (16:10) 5 (16:00) 0 0 0 0 0
04-08-2019 23.4 (16:50) 12.8 (00:00) 18.1 9.17 (13:50) 5.28 (13:50) 0 0 0 0 0
03-08-2019 21.7 (17:20) 13.7 (00:00) 17.7 6.67 (17:20) 3.89 (06:10) 0 0 0 0 0
02-08-2019 21.8 (15:00) 13.1 (00:00) 17.4 8.06 (12:40) 4.72 (12:40) 0 0 0 0 0
01-08-2019 21 (16:10) 13.2 (00:00) 17.1 6.67 (14:30) 4.44 (01:00) 0 0 0 0 0
29-07-2019 22.6 (18:10) 15 (00:00) 18.8 8.33 (13:30) 5 (18:40) 0 0 0 0 0
31-07-2019 20.3 (13:10) 14.5 (00:00) 17.4 6.39 (18:20) 5 (23:20) 0.2 0.2 0 0 0
28-07-2019 23.6 (13:50) 13.5 (00:00) 18.6 7.78 (01:20) 4.72 (01:20) 0 0 0 0 0
27-07-2019 21.3 (14:50) 14.3 (00:00) 17.8 8.89 (14:40) 5.56 (16:20) 0 0 0 0 0

Gráficas

Temp. máximas Temp. mínimas Temp. medias Precipitaciones Rachas de viento máximas Velocidades máximas media en intervalos de 10 minutos

Datos horarios

Fecha y hora oficial Temperatura (ºC) Velocidad del viento (km/h) Dirección del viento Racha (km/h) Dirección de racha Precipitación (mm) Presión (hPa) Tendencia (hPa) Humedad (%)
2019-08-24 23:00:00 22.6 4 Sur 10 Este 0 -- -- 47
2019-08-24 22:00:00 21.4 0 Calma 6 Sur 0 -- -- 55
2019-08-24 21:00:00 22.6 3 Sur 6 Sudeste 0 -- -- 71
2019-08-24 20:00:00 23.1 2 Norte 8 Noroeste 0 -- -- 84
2019-08-24 19:00:00 24.4 4 Noroeste 9 Noroeste 0 -- -- 79
2019-08-24 18:00:00 25.4 5 Noroeste 12 Norte 0 -- -- 74
2019-08-24 17:00:00 25.1 6 Noroeste 10 Oeste 0 -- -- 77
2019-08-24 16:00:00 25.8 6 Norte 12 Oeste 0 -- -- 75
2019-08-24 15:00:00 24.1 7 Noroeste 14 Noroeste 0 -- -- 81
2019-08-24 14:00:00 21.4 7 Norte 10 Norte 0 -- -- 93
2019-08-24 13:00:00 20.8 5 Norte 9 Noroeste 0 -- -- 95
2019-08-24 12:00:00 21.7 5 Noroeste 10 Oeste 0 -- -- 87
2019-08-24 11:00:00 20.1 3 Sudoeste 9 Oeste 0 -- -- 91
2019-08-24 10:00:00 19.4 4 Noroeste 10 Sur 0 -- -- 93
2019-08-24 09:00:00 18.4 3 Oeste 8 Sudoeste 0 -- -- 96
2019-08-24 08:00:00 17.7 6 Sudoeste 11 Sudoeste 0 -- -- 96
2019-08-24 07:00:00 16.8 2 Este 10 Este 0 -- -- 96
2019-08-24 06:00:00 17.5 5 Sur 14 Sudoeste 0 -- -- 97
2019-08-24 05:00:00 17.2 5 Sudoeste 10 Sudoeste 0 -- -- 97
2019-08-24 04:00:00 16.6 3 Sudoeste 7 Sudoeste 0 -- -- 90
2019-08-24 03:00:00 17 0 Calma 5 Sudoeste 0 -- -- 77
2019-08-24 02:00:00 17.3 2 Sur 7 Sudeste 0 -- -- 69
2019-08-24 01:00:00 17 0 Calma 6 Sudeste 0 -- -- 75
2019-08-24 00:00:00 16.5 2 Sur 5 Sur 0 -- -- 89
2019-08-23 23:00:00 18.3 4 Sur 5 Sur 0 -- -- 96
2019-08-23 22:00:00 18.7 0 Calma 4 Oeste 0 -- -- 95
2019-08-23 21:00:00 19.4 2 Noroeste 8 Norte 0 -- -- 94
2019-08-23 20:00:00 19.5 6 Norte 12 Norte 0 -- -- 93
2019-08-23 19:00:00 20.2 6 Norte 11 Norte 0 -- -- 90
2019-08-23 18:00:00 20.2 6 Norte 15 Noroeste 0 -- -- 89
2019-08-23 17:00:00 20.7 8 Norte 18 Noroeste 0 -- -- 86
2019-08-23 16:00:00 21.3 9 Noroeste 19 Norte 0 -- -- 84
2019-08-23 15:00:00 22.1 10 Norte 19 Norte 0 -- -- 81
2019-08-23 14:00:00 22.1 12 Norte 23 Norte 0 -- -- 80
2019-08-23 13:00:00 21 12 Nordeste 18 Nordeste 0 -- -- 83
2019-08-23 12:00:00 21.6 10 Noroeste 17 Norte 0 -- -- 80
2019-08-23 11:00:00 20.7 6 Norte 11 Norte 0 -- -- 84
2019-08-23 10:00:00 19.5 5 Oeste 11 Sudoeste 0 -- -- 83
2019-08-23 09:00:00 18.3 4 Sudoeste 9 Sur 0 -- -- 81
2019-08-23 08:00:00 16.4 7 Sur 10 Sudoeste 0 -- -- 74
2019-08-23 07:00:00 16.5 2 Sudeste 9 Sudoeste 0 -- -- 62
2019-08-23 06:00:00 15.6 0 Calma 4 Sudeste 0 -- -- 75
2019-08-23 05:00:00 16.1 3 Sudeste 5 Sudeste 0 -- -- 65
2019-08-23 04:00:00 15.9 0 Calma 4 Sudeste 0 -- -- 69
2019-08-23 03:00:00 16.9 0 Calma 6 Nordeste 0 -- -- 61
2019-08-23 02:00:00 16.5 2 Sur 6 Sudeste 0 -- -- 63
2019-08-23 01:00:00 15.9 2 Sudoeste 5 Sudeste 0 -- -- 69
2019-08-23 00:00:00 16 2 Este 6 Este 0 -- -- 67
2019-08-22 23:00:00 15.8 4 Sudoeste 9 Sur 0 -- -- 82
2019-08-22 22:00:00 16.6 4 Sudoeste 6 Sudoeste 0 -- -- 90
2019-08-22 21:00:00 18.3 2 Norte 11 Norte 0 -- -- 89
2019-08-22 20:00:00 20.1 6 Norte 14 Norte 0 -- -- 83
2019-08-22 19:00:00 21.7 9 Norte 17 Norte 0 -- -- 76
2019-08-22 18:00:00 22.1 11 Norte 21 Norte 0 -- -- 77
2019-08-22 17:00:00 21.8 12 Nordeste 21 Nordeste 0 -- -- 75
2019-08-22 16:00:00 21.7 13 Norte 20 Noroeste 0 -- -- 77
2019-08-22 15:00:00 21.8 11 Norte 24 Norte 0 -- -- 75
2019-08-22 14:00:00 21.4 12 Norte 20 Norte 0 -- -- 76
2019-08-22 13:00:00 20.9 9 Norte 18 Norte 0 -- -- 76
2019-08-22 12:00:00 20.5 9 Noroeste 18 Norte 0 -- -- 77
2019-08-22 11:00:00 19.7 9 Noroeste 15 Norte 0 -- -- 83
2019-08-22 10:00:00 19.1 5 Norte 10 Norte 0 -- -- 79
2019-08-22 09:00:00 16.3 8 Sur 12 Sur 0 -- -- 80
2019-08-22 08:00:00 14.8 8 Sur 14 Sudeste 0 -- -- 79
2019-08-22 07:00:00 14.6 6 Sudeste 13 Este 0 -- -- 76
2019-08-22 06:00:00 15.3 8 Sudeste 21 Este 0 -- -- 75
2019-08-22 05:00:00 14.4 10 Sudeste 16 Sudeste 0 -- -- 79
2019-08-22 04:00:00 14.6 8 Sudeste 16 Sudeste 0 -- -- 82
2019-08-22 03:00:00 14.1 8 Sudeste 14 Sudeste 0 -- -- 86
2019-08-22 02:00:00 14.9 5 Este 16 Sur 0 -- -- 83
2019-08-22 01:00:00 14.9 7 Sur 18 Este 0 -- -- 79
2019-08-22 00:00:00 15.4 8 Este 15 Sudeste 0 -- -- 82
2019-08-21 23:00:00 15.3 5 Sudeste 10 Sudeste 0 -- -- 86
2019-08-21 22:00:00 16.3 6 Sudeste 11 Sur 0 -- -- 87
2019-08-21 21:00:00 18.1 7 Este 21 Norte 0 -- -- 79
2019-08-21 20:00:00 19.8 11 Nordeste 28 Norte 0 -- -- 80
2019-08-21 19:00:00 20.3 17 Norte 30 Norte 0 -- -- 77
2019-08-21 18:00:00 20.9 18 Norte 29 Norte 0 -- -- 75
2019-08-21 17:00:00 21.2 18 Norte 30 Norte 0 -- -- 73
2019-08-21 16:00:00 21.3 17 Norte 29 Nordeste 0 -- -- 73
2019-08-21 15:00:00 21 19 Norte 31 Norte 0 -- -- 72
2019-08-21 14:00:00 21 19 Norte 28 Norte 0 -- -- 74
2019-08-21 13:00:00 21.5 13 Nordeste 25 Nordeste 0 -- -- 73
2019-08-21 12:00:00 20.1 14 Nordeste 25 Norte 0 -- -- 78
2019-08-21 11:00:00 20.3 10 Nordeste 19 Este 0 -- -- 76
2019-08-21 10:00:00 18.7 6 Nordeste 19 Nordeste 0 -- -- 89
2019-08-21 09:00:00 17.5 11 Este 16 Este 0 -- -- 91
2019-08-21 08:00:00 16.9 7 Este 19 Este 0 -- -- 91
2019-08-21 07:00:00 16.7 9 Este 18 Este 0 -- -- 94
2019-08-21 06:00:00 15.8 5 Sudeste 10 Sudeste 0 -- -- 93
2019-08-21 05:00:00 15.6 6 Sudeste 12 Este 0 -- -- 91
2019-08-21 04:00:00 16.1 4 Sudeste 10 Sudeste 0 -- -- 88
2019-08-21 03:00:00 16 5 Sudeste 8 Sudeste 0 -- -- 87
2019-08-21 02:00:00 16 2 Sudeste 6 Sudeste 0 -- -- 90
2019-08-21 01:00:00 16.5 0 Calma 7 Sudeste 0 -- -- 86
2019-08-21 00:00:00 16.4 3 Sudeste 9 Sudeste 0 -- -- 86
2019-08-20 23:00:00 16.3 3 Sudeste 6 Sudeste 0 -- -- 88
2019-08-20 22:00:00 18.2 2 Oeste 9 Sur 0 -- -- 90
2019-08-20 21:00:00 19 4 Sudoeste 15 Nordeste 0 -- -- 88
2019-08-20 20:00:00 20.7 10 Norte 16 Nordeste 0 -- -- 82
2019-08-20 19:00:00 22.2 9 Norte 17 Norte 0 -- -- 79
2019-08-20 18:00:00 22.8 11 Norte 20 Nordeste 0 -- -- 75
2019-08-20 17:00:00 24.4 10 Norte 18 Norte 0 -- -- 68
2019-08-20 16:00:00 23.6 11 Norte 18 Noroeste 0 -- -- 71
2019-08-20 15:00:00 24.2 10 Norte 20 Norte 0 -- -- 69
2019-08-20 14:00:00 24.5 12 Noroeste 18 Norte 0 -- -- 69
2019-08-20 13:00:00 23.3 8 Norte 15 Norte 0 -- -- 74
2019-08-20 12:00:00 21.9 9 Norte 15 Norte 0 -- -- 77
2019-08-20 11:00:00 21.1 6 Noroeste 10 Noroeste 0 -- -- 79
2019-08-20 10:00:00 19.8 2 Noroeste 5 Noroeste 0 -- -- 75
2019-08-20 09:00:00 17.5 0 Calma 5 Sur 0 -- -- 50
2019-08-20 08:00:00 15.1 2 Sudeste 9 Sudeste 0 -- -- 50
2019-08-20 07:00:00 15.5 0 Calma 10 Sudeste 0 -- -- 46
2019-08-20 06:00:00 15.8 3 Nordeste 6 Sur 0 -- -- 44
2019-08-20 05:00:00 15.7 0 Calma 16 Sudeste 0 -- -- 60
2019-08-20 04:00:00 19.2 10 Sudeste 16 Sudeste 0 -- -- 26
2019-08-20 03:00:00 17.1 0 Calma 14 Sudeste 0 -- -- 39
2019-08-20 02:00:00 16.6 0 Calma 14 Sudeste 0 -- -- 42
2019-08-20 01:00:00 16.2 2 Sur 9 Sur 0 -- -- 62
2019-08-20 00:00:00 17.5 4 Sur 7 Sudoeste 0 -- -- 93
2019-08-19 23:00:00 16.8 3 Sur 7 Sudoeste 0 -- -- 86
2019-08-19 22:00:00 19.7 0 Calma 5 Sudeste 0 -- -- 84
2019-08-19 21:00:00 21.7 0 Calma 6 Sudeste 0 -- -- 80
2019-08-19 20:00:00 25.6 0 Calma 9 Noroeste 0 -- -- 69
2019-08-19 19:00:00 28.9 3 Noroeste 8 Noroeste 0 -- -- 59
2019-08-19 18:00:00 26.2 5 Noroeste 12 Noroeste 0 -- -- 66
2019-08-19 17:00:00 27.1 4 Noroeste 13 Noroeste 0 -- -- 64
2019-08-19 16:00:00 26.6 5 Norte 14 Noroeste 0 -- -- 65
2019-08-19 15:00:00 27 6 Noroeste 19 Noroeste 0 -- -- 62
2019-08-19 14:00:00 28.4 6 Nordeste 17 Noroeste 0 -- -- 59
2019-08-19 13:00:00 26.4 7 Sudeste 20 Noroeste 0 -- -- 66
2019-08-19 12:00:00 26 5 Oeste 16 Noroeste 0 -- -- 64
2019-08-19 11:00:00 26.1 4 Este 15 Noroeste 0 -- -- 62
2019-08-19 10:00:00 27.8 3 Este 16 Sudeste 0 -- -- 35
2019-08-19 09:00:00 23.7 13 Sudeste 16 Sudeste 0 -- -- 35
2019-08-19 08:00:00 21.9 6 Sur 15 Sudeste 0 -- -- 31
2019-08-19 07:00:00 21.6 8 Sudeste 17 Sudeste 0 -- -- 31
2019-08-19 06:00:00 21.5 9 Sudeste 14 Sudeste 0 -- -- 32
2019-08-19 05:00:00 21.8 10 Sudeste 15 Sudeste 0 -- -- 32
2019-08-19 04:00:00 21.9 9 Sudeste 15 Sudeste 0 -- -- 33
2019-08-19 03:00:00 21.7 6 Sudeste 13 Sudeste 0 -- -- 34
2019-08-19 02:00:00 21.7 3 Sudeste 11 Sudeste 0 -- -- 36
2019-08-19 01:00:00 22.8 8 Sudeste 13 Sudeste 0 -- -- 33
2019-08-19 00:00:00 22.4 5 Sudeste 13 Sudeste 0 -- -- 39
2019-08-18 23:00:00 22.4 5 Sudeste 10 Sudeste 0 -- -- 46
2019-08-18 22:00:00 23 5 Sudeste 11 Este 0 -- -- 42
2019-08-18 21:00:00 23.6 4 Sudeste 9 Sudeste 0 -- -- 59
2019-08-18 20:00:00 24.6 3 Sudoeste 9 Noroeste 0 -- -- 74
2019-08-18 19:00:00 27.5 4 Noroeste 9 Noroeste 0 -- -- 63
2019-08-18 18:00:00 26.9 5 Noroeste 12 Noroeste 0 -- -- 65
2019-08-18 17:00:00 26.4 7 Noroeste 15 Noroeste 0 -- -- 67
2019-08-18 16:00:00 25.8 6 Noroeste 14 Oeste 0 -- -- 70
2019-08-18 15:00:00 25.1 6 Noroeste 14 Noroeste 0 -- -- 72
2019-08-18 14:00:00 26.1 7 Noroeste 12 Noroeste 0 -- -- 70
2019-08-18 13:00:00 26.6 5 Noroeste 12 Noroeste 0 -- -- 66
2019-08-18 12:00:00 26.5 4 Noroeste 9 Noroeste 0 -- -- 66
2019-08-18 11:00:00 26.2 2 Norte 8 Noroeste 0 -- -- 57
2019-08-18 10:00:00 25.9 3 Nordeste 10 Sudeste 0 -- -- 49
2019-08-18 09:00:00 22.9 6 Sur 12 Sudeste 0 -- -- 41
2019-08-18 08:00:00 21.3 4 Sudeste 12 Sudeste 0 -- -- 35
2019-08-18 07:00:00 21.2 7 Sudeste 12 Sudeste 0 -- -- 35
2019-08-18 06:00:00 22.4 4 Sudeste 17 Sudeste 0 -- -- 33
2019-08-18 05:00:00 21.7 8 Sudeste 14 Sudeste 0 -- -- 37
2019-08-18 04:00:00 22 7 Sudeste 14 Sur 0 -- -- 36
2019-08-18 03:00:00 21 4 Sur 13 Sudeste 0 -- -- 40
2019-08-18 02:00:00 21.4 4 Sur 16 Norte 0 -- -- 54
2019-08-18 01:00:00 21.1 5 Sudeste 13 Sudeste 0 -- -- 45
2019-08-18 00:00:00 22.7 3 Sur 17 Sudeste 0 -- -- 41
2019-08-17 23:00:00 23.2 10 Este 17 Sudeste 0 -- -- 47
2019-08-17 22:00:00 24.7 4 Sur 12 Sudeste 0 -- -- 40
2019-08-17 21:00:00 24.5 3 Sur 15 Sudeste 0 -- -- 57
2019-08-17 20:00:00 26 4 Sur 14 Sudeste 0 -- -- 74
2019-08-17 19:00:00 26.5 3 Noroeste 13 Noroeste 0 -- -- 71
2019-08-17 18:00:00 28.1 5 Noroeste 11 Noroeste 0 -- -- 65
2019-08-17 17:00:00 26.8 5 Norte 12 Noroeste 0 -- -- 71
2019-08-17 16:00:00 26.5 5 Noroeste 17 Noroeste 0 -- -- 71
2019-08-17 15:00:00 25.2 7 Oeste 17 Noroeste 0 -- -- 76
2019-08-17 14:00:00 26.1 6 Noroeste 15 Noroeste 0 -- -- 71
2019-08-17 13:00:00 26.1 5 Noroeste 14 Noroeste 0 -- -- 70
2019-08-17 12:00:00 26.4 5 Este 13 Noroeste 0 -- -- 69
2019-08-17 11:00:00 25.1 3 Noroeste 9 Noroeste 0 -- -- 74
2019-08-17 10:00:00 22.4 0 Calma 6 Norte 0 -- -- 79
2019-08-17 09:00:00 22.8 4 Sudoeste 10 Sudoeste 0 -- -- 53
2019-08-17 08:00:00 19.5 2 Sur 8 Sudeste 0 -- -- 62
2019-08-17 07:00:00 19.3 0 Calma 9 Sudoeste 0 -- -- 58
2019-08-17 06:00:00 19.2 3 Sudoeste 13 Sur 0 -- -- 75
2019-08-17 05:00:00 18.2 2 Oeste 7 Sur 0 -- -- 73
2019-08-17 04:00:00 19.4 4 Sur 9 Sur 0 -- -- 59
2019-08-17 03:00:00 18.6 4 Sudoeste 8 Sudoeste 0 -- -- 74
2019-08-17 02:00:00 20.4 3 Este 10 Sudeste 0 -- -- 51
2019-08-17 01:00:00 19.4 3 Este 12 Sudeste 0 -- -- 56
2019-08-17 00:00:00 17 2 Este 9 Sur 0 -- -- 84
2019-08-16 23:00:00 17.4 4 Sudoeste 8 Sudoeste 0 -- -- 99
2019-08-16 22:00:00 19 4 Sur 8 Sudeste 0 -- -- 100
2019-08-16 21:00:00 19.7 2 Sudoeste 9 Sur 0 -- -- 98
2019-08-16 20:00:00 20.1 2 Oeste 5 Norte 0 -- -- 98
2019-08-16 19:00:00 20.1 3 Noroeste 9 Norte 0 -- -- 97
2019-08-16 18:00:00 20.5 5 Norte 10 Norte 0 -- -- 96
2019-08-16 17:00:00 20.8 5 Norte 10 Norte 0 -- -- 94
2019-08-16 16:00:00 21.4 7 Noroeste 10 Norte 0 -- -- 91
2019-08-16 15:00:00 20.9 5 Noroeste 10 Noroeste 0 -- -- 94
2019-08-16 14:00:00 21 5 Norte 9 Norte 0 -- -- 91
2019-08-16 13:00:00 21.1 6 Noroeste 11 Norte 0 -- -- 89
2019-08-16 12:00:00 21.8 6 Noroeste 13 Noroeste 0 -- -- 82
2019-08-16 11:00:00 21.1 8 Noroeste 12 Noroeste 0 -- -- 83
2019-08-16 10:00:00 19.7 6 Noroeste 15 Oeste 0 -- -- 86
2019-08-16 09:00:00 18 7 Sudoeste 14 Sudoeste 0 -- -- 92
2019-08-16 08:00:00 15.6 7 Sudeste 13 Sudeste 0 -- -- 95
2019-08-16 07:00:00 16.2 6 Sudeste 10 Sudeste 0 -- -- 94
2019-08-16 06:00:00 16.9 5 Sur 8 Sudeste 0 -- -- 93
2019-08-16 05:00:00 17.5 4 Sudeste 6 Sudeste 0 -- -- 91
2019-08-16 04:00:00 17.7 3 Sur 8 Sur 0 -- -- 91
2019-08-16 03:00:00 16.7 6 Sudeste 17 Sudeste 0 -- -- 92
2019-08-16 02:00:00 16.6 8 Sudeste 11 Sudeste 0 -- -- 91
2019-08-16 01:00:00 17.2 7 Sudeste 12 Sudeste 0 -- -- 91
2019-08-16 00:00:00 17.4 6 Sudeste 13 Sur 0 -- -- 90
2019-08-15 23:00:00 18 7 Sur 10 Sur 0 -- -- 88
2019-08-15 22:00:00 19 2 Sudoeste 14 Este 0 -- -- 86
2019-08-15 21:00:00 18.7 8 Nordeste 15 Nordeste 0 -- -- 89
2019-08-15 20:00:00 19.1 7 Nordeste 17 Nordeste 0 -- -- 91
2019-08-15 19:00:00 19.8 10 Nordeste 20 Nordeste 0 -- -- 87
2019-08-15 18:00:00 20.4 10 Nordeste 21 Norte 0 -- -- 85
2019-08-15 17:00:00 20.9 13 Norte 24 Norte 0 -- -- 82
2019-08-15 16:00:00 22.1 14 Norte 24 Nordeste 0 -- -- 78
2019-08-15 15:00:00 21.5 14 Norte 23 Norte 0 -- -- 79
2019-08-15 14:00:00 22.1 12 Norte 23 Norte 0 -- -- 78
2019-08-15 13:00:00 20.7 12 Norte 20 Norte 0 -- -- 83
2019-08-15 12:00:00 20.6 9 Norte 16 Norte 0 -- -- 82
2019-08-15 11:00:00 19.7 7 Norte 14 Noroeste 0 -- -- 84
2019-08-15 10:00:00 19.1 3 Norte 12 Sur 0 -- -- 72
2019-08-15 09:00:00 16.8 11 Sur 17 Sur 0 -- -- 81
2019-08-15 08:00:00 13.7 5 Sudeste 16 Sur 0 -- -- 72
2019-08-15 07:00:00 14 12 Sur 14 Sur 0 -- -- 66
2019-08-15 06:00:00 13.4 7 Sudeste 14 Sudeste 0 -- -- 78
2019-08-15 05:00:00 14.5 11 Sur 18 Sudeste 0 -- -- 75
2019-08-15 04:00:00 14 10 Sur 15 Sudeste 0 -- -- 75
2019-08-15 03:00:00 14 10 Sudeste 15 Sudeste 0 -- -- 77
2019-08-15 02:00:00 13.7 11 Sudeste 14 Sudeste 0 -- -- 73
2019-08-15 01:00:00 13.8 10 Sudeste 15 Sur 0 -- -- 63
2019-08-15 00:00:00 14.4 6 Sur 12 Sudeste 0 -- -- 80
2019-08-14 23:00:00 14 9 Sudeste 14 Sudeste 0 -- -- 77
2019-08-14 22:00:00 15.6 7 Sur 11 Norte 0 -- -- 85
2019-08-14 21:00:00 18 3 Norte 14 Norte 0 -- -- 90
2019-08-14 20:00:00 19.4 6 Norte 16 Nordeste 0 -- -- 85
2019-08-14 19:00:00 19.5 9 Norte 20 Nordeste 0 -- -- 86
2019-08-14 18:00:00 20.1 10 Norte 21 Norte 0 -- -- 83
2019-08-14 17:00:00 20.6 13 Norte 27 Norte 0 -- -- 81
2019-08-14 16:00:00 21 12 Norte 21 Noroeste 0 -- -- 78
2019-08-14 15:00:00 20.2 11 Norte 21 Norte 0 -- -- 81
2019-08-14 14:00:00 21.3 13 Norte 21 Norte 0 -- -- 74
2019-08-14 13:00:00 20.6 13 Norte 23 Norte 0 -- -- 74
2019-08-14 12:00:00 19.8 11 Norte 21 Norte 0 -- -- 79
2019-08-14 11:00:00 19 10 Norte 19 Norte 0 -- -- 80
2019-08-14 10:00:00 18.9 8 Este 17 Nordeste 0 -- -- 77
2019-08-14 09:00:00 16 8 Este 17 Sudeste 0 -- -- 73
2019-08-14 08:00:00 14.7 12 Sudeste 19 Sudeste 0 -- -- 80
2019-08-14 07:00:00 13.9 14 Sudeste 20 Sudeste 0 -- -- 76
2019-08-14 06:00:00 13.5 14 Sudeste 19 Sudeste 0 -- -- 71
2019-08-14 05:00:00 13.6 12 Sudeste 20 Sudeste 0 -- -- 69
2019-08-14 04:00:00 14.3 13 Sudeste 18 Este 0 -- -- 67
2019-08-14 03:00:00 13.9 14 Sudeste 18 Sudeste 0 -- -- 72
2019-08-14 02:00:00 14 10 Sudeste 17 Este 0 -- -- 66
2019-08-14 01:00:00 15 8 Sudeste 21 Sudeste 0 -- -- 63
2019-08-14 00:00:00 14.5 13 Sudeste 17 Sudeste 0 -- -- 68
2019-08-13 23:00:00 14.6 9 Sudeste 15 Sudeste 0 -- -- 73
2019-08-13 22:00:00 16 10 Sudeste 18 Sudeste 0 -- -- 77
2019-08-13 21:00:00 17.6 9 Este 21 Norte 0 -- -- 83
2019-08-13 20:00:00 19.4 12 Nordeste 24 Norte 0 -- -- 79
2019-08-13 19:00:00 20.7 12 Norte 24 Nordeste 0 -- -- 75
2019-08-13 18:00:00 20.5 17 Norte 27 Norte 0 -- -- 72
2019-08-13 17:00:00 21.1 14 Norte 31 Nordeste 0 -- -- 69
2019-08-13 16:00:00 21.4 14 Norte 28 Norte 0 -- -- 71
2019-08-13 15:00:00 21.3 17 Norte 29 Norte 0 -- -- 70
2019-08-13 14:00:00 21.4 17 Norte 29 Norte 0 -- -- 71
2019-08-13 13:00:00 21.2 15 Norte 27 Norte 0 -- -- 70
2019-08-13 12:00:00 20.7 15 Norte 26 Norte 0 -- -- 74
2019-08-13 11:00:00 19.9 13 Norte 23 Nordeste 0 -- -- 76
2019-08-13 10:00:00 19.7 3 Sur 7 Sudeste 0 -- -- 62
2019-08-13 09:00:00 16.5 5 Sudeste 14 Sudeste 0 -- -- 58
2019-08-13 08:00:00 15.2 11 Sur 15 Sudeste 0 -- -- 63
2019-08-13 07:00:00 14.2 6 Sudeste 14 Sur 0 -- -- 52
2019-08-13 06:00:00 15.4 12 Sur 15 Sur 0 -- -- 60
2019-08-13 05:00:00 14.8 10 Sudeste 17 Sudeste 0 -- -- 51
2019-08-13 04:00:00 15.2 6 Sur 13 Sudeste 0 -- -- 43
2019-08-13 03:00:00 15.2 6 Sur 12 Sudeste 0 -- -- 45
2019-08-13 02:00:00 15.6 5 Este 10 Sudeste 0 -- -- 36
2019-08-13 01:00:00 16.3 5 Sudeste 12 Sudeste 0 -- -- 38
2019-08-13 00:00:00 15.5 5 Sudeste 10 Sudeste 0 -- -- 42
2019-08-12 23:00:00 15.9 4 Sudeste 12 Sudeste 0 -- -- 50
2019-08-12 22:00:00 16.6 4 Sudeste 11 Sudeste 0 -- -- 47
2019-08-12 21:00:00 19.1 5 Sudoeste 17 Nordeste 0 -- -- 79
2019-08-12 20:00:00 21.2 10 Nordeste 21 Nordeste 0 -- -- 67
2019-08-12 19:00:00 21.3 14 Norte 34 Norte 0 -- -- 72
2019-08-12 18:00:00 22.2 17 Norte 31 Norte 0 -- -- 64
2019-08-12 17:00:00 21.9 17 Norte 30 Nordeste 0 -- -- 72
2019-08-12 16:00:00 21.8 19 Nordeste 30 Norte 0 -- -- 70
2019-08-12 15:00:00 21.3 19 Nordeste 30 Nordeste 0 -- -- 74
2019-08-12 14:00:00 21.8 18 Norte 30 Norte 0 -- -- 72
2019-08-12 13:00:00 21.3 16 Norte 27 Norte 0 -- -- 76
2019-08-12 12:00:00 21.3 15 Nordeste 27 Nordeste 0 -- -- 70
2019-08-12 11:00:00 21.2 12 Nordeste 25 Este 0 -- -- 70
2019-08-12 10:00:00 19.3 12 Nordeste 27 Nordeste 0 -- -- 80
2019-08-12 09:00:00 18.5 6 Sudeste 15 Este 0 -- -- 69
2019-08-12 08:00:00 15.9 5 Sur 14 Sudeste 0 -- -- 86
2019-08-12 07:00:00 15.6 10 Sur 14 Sur 0 -- -- 81
2019-08-12 06:00:00 15.9 8 Sur 14 Sur 0 -- -- 83
2019-08-12 05:00:00 15.7 10 Sur 13 Sur 0 -- -- 77
2019-08-12 04:00:00 16.1 9 Sur 14 Sur 0 -- -- 76
2019-08-12 03:00:00 16 7 Sur 14 Sudeste 0 -- -- 76
2019-08-12 02:00:00 16.5 8 Sudeste 14 Nordeste 0 -- -- 73
2019-08-12 01:00:00 16.4 7 Sudeste 14 Este 0 -- -- 69
2019-08-12 00:00:00 16.9 6 Este 21 Sudeste 0 -- -- 66
2019-08-11 23:00:00 17.7 9 Nordeste 30 Nordeste 0 -- -- 75
2019-08-11 22:00:00 18.4 12 Este 27 Nordeste 0 -- -- 78
2019-08-11 21:00:00 18.7 13 Este 25 Este 0 -- -- 75
2019-08-11 20:00:00 20.8 10 Nordeste 24 Norte 0 -- -- 71
2019-08-11 19:00:00 21.2 17 Nordeste 28 Norte 0 -- -- 71
2019-08-11 18:00:00 22.4 15 Norte 28 Norte 0 -- -- 66
2019-08-11 17:00:00 21.8 17 Nordeste 33 Nordeste 0 -- -- 69
2019-08-11 16:00:00 22 16 Nordeste 33 Norte 0 -- -- 74
2019-08-11 15:00:00 22.2 21 Norte 32 Norte 0 -- -- 79
2019-08-11 14:00:00 22.5 16 Nordeste 28 Norte 0 -- -- 76
2019-08-11 13:00:00 22.1 15 Nordeste 27 Nordeste 0 -- -- 76
2019-08-11 12:00:00 22.2 13 Nordeste 25 Este 0 -- -- 80
2019-08-11 11:00:00 21.5 9 Nordeste 19 Nordeste 0 -- -- 88
2019-08-11 10:00:00 20.7 7 Norte 13 Norte 0 -- -- 93
2019-08-11 09:00:00 21.3 3 Noroeste 9 Noroeste 0 -- -- 86
2019-08-11 08:00:00 19.8 5 Sudeste 15 Nordeste 0 -- -- 89
2019-08-11 07:00:00 19.1 8 Este 18 Este 0 -- -- 90
2019-08-11 06:00:00 19.8 6 Este 14 Este 0 -- -- 89
2019-08-11 05:00:00 19.9 6 Este 19 Este 0 -- -- 89
2019-08-11 04:00:00 19.9 10 Este 28 Este 0 -- -- 87
2019-08-11 03:00:00 18.2 7 Sudeste 16 Sur 0 -- -- 78
2019-08-11 02:00:00 16.9 8 Sudeste 13 Sudeste 0 -- -- 84
2019-08-11 01:00:00 16.6 8 Sudeste 13 Sudeste 0 -- -- 84
2019-08-11 00:00:00 17.4 5 Sur 10 Sudeste 0 -- -- 83
2019-08-10 23:00:00 17.4 6 Sudeste 10 Sudeste 0 -- -- 77
2019-08-10 22:00:00 18.5 5 Sudeste 9 Sudeste 0 -- -- 80
2019-08-10 21:00:00 20.8 0 Calma 10 Noroeste 0 -- -- 88
2019-08-10 20:00:00 23.4 5 Oeste 16 Nordeste 0 -- -- 78
2019-08-10 19:00:00 23.3 9 Norte 19 Norte 0 -- -- 78
2019-08-10 18:00:00 24.7 12 Noroeste 21 Noroeste 0 -- -- 74
2019-08-10 17:00:00 25.1 12 Noroeste 24 Norte 0 -- -- 73
2019-08-10 16:00:00 24.9 13 Noroeste 22 Norte 0 -- -- 73
2019-08-10 15:00:00 24.4 10 Norte 23 Norte 0 -- -- 74
2019-08-10 14:00:00 23.9 12 Norte 21 Norte 0 -- -- 75
2019-08-10 13:00:00 22.9 13 Norte 21 Nordeste 0 -- -- 78
2019-08-10 12:00:00 23.2 10 Norte 16 Noroeste 0 -- -- 79
2019-08-10 11:00:00 22.9 6 Norte 10 Norte 0 -- -- 79
2019-08-10 10:00:00 22.1 3 Noroeste 6 Sudeste 0 -- -- 70
2019-08-10 09:00:00 20.3 3 Sur 13 Sudeste 0 -- -- 45
2019-08-10 08:00:00 18.4 5 Sudeste 12 Sudeste 0 -- -- 41
2019-08-10 07:00:00 16.8 5 Sudeste 14 Sur 0 -- -- 41
2019-08-10 06:00:00 15.9 3 Sudeste 11 Sudeste 0 -- -- 50
2019-08-10 05:00:00 17.1 8 Sur 11 Sudeste 0 -- -- 43
2019-08-10 04:00:00 17.2 3 Sudeste 12 Este 0 -- -- 45
2019-08-10 03:00:00 17.1 6 Sudoeste 9 Sudoeste 0 -- -- 46
2019-08-10 02:00:00 17.8 6 Sudeste 11 Sudeste 0 -- -- 42
2019-08-10 01:00:00 17.6 3 Sur 8 Sudeste 0 -- -- 55
2019-08-10 00:00:00 17.7 2 Sur 7 Sudeste 0 -- -- 60
2019-08-09 23:00:00 18.6 2 Sur 10 Sudeste 0 -- -- 56
2019-08-09 22:00:00 19.3 6 Sudeste 9 Sudeste 0 -- -- 58
2019-08-09 21:00:00 20.3 0 Calma 7 Noroeste 0 -- -- 88
2019-08-09 20:00:00 23 4 Noroeste 10 Noroeste 0 -- -- 77
2019-08-09 19:00:00 24.7 7 Noroeste 12 Norte 0 -- -- 71
2019-08-09 18:00:00 24.5 7 Noroeste 16 Noroeste 0 -- -- 71
2019-08-09 17:00:00 23.4 9 Noroeste 17 Noroeste 0 -- -- 75
2019-08-09 16:00:00 24.1 9 Noroeste 15 Noroeste 0 -- -- 73
2019-08-09 15:00:00 23.7 9 Noroeste 18 Noroeste 0 -- -- 75
2019-08-09 14:00:00 23.6 8 Noroeste 15 Noroeste 0 -- -- 75
2019-08-09 13:00:00 23.9 6 Noroeste 13 Noroeste 0 -- -- 76
2019-08-09 12:00:00 23.7 5 Noroeste 10 Noroeste 0 -- -- 74
2019-08-09 11:00:00 21.8 6 Noroeste 10 Norte 0 -- -- 76
2019-08-09 10:00:00 21 3 Noroeste 5 Noroeste 0 -- -- 75
2019-08-09 09:00:00 20.3 2 Oeste 10 Sudeste 0 -- -- 46
2019-08-09 08:00:00 19 6 Sudeste 12 Sudeste 0 -- -- 43
2019-08-09 07:00:00 19.1 5 Sudeste 13 Sudeste 0 -- -- 41
2019-08-09 06:00:00 15.4 2 Sur 5 Sudeste 0 -- -- 66
2019-08-09 05:00:00 15.5 0 Calma 5 Sudeste 0 -- -- 69
2019-08-09 04:00:00 15.6 2 Sur 5 Sudeste 0 -- -- 75
2019-08-09 03:00:00 16.8 3 Sudeste 9 Sudeste 0 -- -- 60
2019-08-09 02:00:00 16.9 5 Sudeste 9 Sudeste 0 -- -- 59
2019-08-09 01:00:00 17.4 4 Este 8 Sudeste 0 -- -- 55
2019-08-09 00:00:00 17.3 0 Calma 5 Sudeste 0 -- -- 69
2019-08-08 23:00:00 16.8 0 Calma 4 Sudeste 0 -- -- 82
2019-08-08 22:00:00 17.1 0 Calma 5 Sudeste 0 -- -- 82
2019-08-08 21:00:00 19.1 0 Calma 8 Noroeste 0 -- -- 91
2019-08-08 20:00:00 21.5 5 Noroeste 12 Noroeste 0 -- -- 82
2019-08-08 19:00:00 22.9 5 Noroeste 13 Noroeste 0 -- -- 76
2019-08-08 18:00:00 24.2 7 Noroeste 16 Norte 0 -- -- 71
2019-08-08 17:00:00 23 7 Norte 19 Noroeste 0 -- -- 75
2019-08-08 16:00:00 24 8 Noroeste 16 Noroeste 0 -- -- 72
2019-08-08 15:00:00 23 8 Noroeste 18 Noroeste 0 -- -- 75
2019-08-08 14:00:00 22.8 8 Norte 15 Norte 0 -- -- 75
2019-08-08 13:00:00 23 9 Noroeste 14 Noroeste 0 -- -- 75
2019-08-08 12:00:00 22.1 8 Noroeste 14 Noroeste 0 -- -- 79
2019-08-08 11:00:00 20.6 5 Noroeste 10 Oeste 0 -- -- 81
2019-08-08 10:00:00 19 5 Oeste 10 Sudoeste 0 -- -- 85
2019-08-08 09:00:00 17.4 5 Sudoeste 12 Sur 0 -- -- 84
2019-08-08 08:00:00 14.9 9 Sur 13 Sur 0 -- -- 84
2019-08-08 07:00:00 14.7 5 Sur 13 Sudeste 0 -- -- 88
2019-08-08 06:00:00 14.6 6 Sur 13 Sur 0 -- -- 73
2019-08-08 05:00:00 14.9 10 Sur 13 Sur 0 -- -- 80
2019-08-08 04:00:00 14.2 10 Sudeste 14 Sudeste 0 -- -- 83
2019-08-08 03:00:00 14.7 9 Sudeste 11 Sudeste 0 -- -- 80
2019-08-08 02:00:00 14.3 7 Sudeste 11 Sudeste 0 -- -- 76
2019-08-08 01:00:00 14.6 9 Sudeste 12 Sudeste 0 -- -- 82
2019-08-08 00:00:00 14.9 8 Sudeste 12 Sudeste 0 -- -- 74
2019-08-07 23:00:00 15.6 8 Sur 11 Sudeste 0 -- -- 84
2019-08-07 22:00:00 17.6 7 Sur 13 Nordeste 0 -- -- 88
2019-08-07 21:00:00 18.9 8 Nordeste 15 Nordeste 0 -- -- 88
2019-08-07 20:00:00 19.3 3 Norte 14 Nordeste 0 -- -- 90
2019-08-07 19:00:00 20 9 Norte 17 Nordeste 0 -- -- 84
2019-08-07 18:00:00 21.2 10 Norte 21 Norte 0 -- -- 79
2019-08-07 17:00:00 22.3 10 Norte 20 Norte 0 -- -- 74
2019-08-07 16:00:00 22.2 12 Noroeste 25 Norte 0 -- -- 73
2019-08-07 15:00:00 21.3 15 Nordeste 23 Norte 0 -- -- 76
2019-08-07 14:00:00 21.7 14 Norte 26 Nordeste 0 -- -- 72
2019-08-07 13:00:00 21.6 16 Norte 27 Norte 0 -- -- 75
2019-08-07 12:00:00 20 13 Nordeste 23 Nordeste 0 -- -- 83
2019-08-07 11:00:00 20.2 12 Norte 18 Nordeste 0 -- -- 80
2019-08-07 10:00:00 19.8 7 Norte 21 Sudeste 0 -- -- 79
2019-08-07 09:00:00 17.4 9 Sudeste 21 Sudeste 0 -- -- 77
2019-08-07 08:00:00 16.1 15 Sudeste 21 Sudeste 0 -- -- 85
2019-08-07 07:00:00 16.1 13 Sudeste 18 Sudeste 0 -- -- 82
2019-08-07 06:00:00 16.7 14 Sudeste 20 Sudeste 0 -- -- 82
2019-08-07 05:00:00 17.4 12 Sudeste 16 Sudeste 0 -- -- 79
2019-08-07 04:00:00 18 6 Este 13 Este 0 -- -- 85
2019-08-07 03:00:00 17.8 7 Sudeste 13 Este 0 -- -- 82
2019-08-07 02:00:00 18.2 3 Sudeste 14 Sudeste 0 -- -- 81
2019-08-07 01:00:00 18.2 7 Este 13 Sudeste 0 -- -- 80
2019-08-07 00:00:00 18.2 5 Sudeste 15 Sudeste 0 -- -- 88
2019-08-06 23:00:00 17.9 10 Sur 15 Sur 0 -- -- 78
2019-08-06 22:00:00 17.5 10 Sudeste 16 Sudeste 0 -- -- 81
2019-08-06 21:00:00 18.6 10 Este 24 Nordeste 0 -- -- 83
2019-08-06 20:00:00 19.9 6 Norte 18 Norte 0 -- -- 80
2019-08-06 19:00:00 19.9 10 Norte 20 Norte 0 -- -- 85
2019-08-06 18:00:00 20.8 13 Norte 21 Norte 0 -- -- 83
2019-08-06 17:00:00 20.9 10 Norte 22 Norte 0 -- -- 78
2019-08-06 16:00:00 21.2 9 Norte 20 Norte 0 -- -- 78
2019-08-06 15:00:00 21.8 13 Norte 27 Norte 0 -- -- 73
2019-08-06 14:00:00 21.3 13 Norte 22 Norte 0 -- -- 73
2019-08-06 13:00:00 21.3 10 Norte 19 Norte 0 -- -- 74
2019-08-06 12:00:00 20.7 9 Norte 18 Norte 0 -- -- 77
2019-08-06 11:00:00 20.2 11 Norte 17 Norte 0 -- -- 74
2019-08-06 10:00:00 20.2 6 Nordeste 13 Este 0 -- -- 74
2019-08-06 09:00:00 17.2 8 Sudeste 14 Sudeste 0 -- -- 85
2019-08-06 08:00:00 15.8 11 Sudeste 19 Sudeste 0 -- -- 87
2019-08-06 07:00:00 15.4 13 Sudeste 16 Sudeste 0 -- -- 81
2019-08-06 06:00:00 16.5 10 Sudeste 14 Sudeste 0 -- -- 84
2019-08-06 05:00:00 18.2 10 Sudeste 16 Sudeste 0 -- -- 81
2019-08-06 04:00:00 17.7 8 Sudeste 20 Este 0 -- -- 80
2019-08-06 03:00:00 16.2 11 Sudeste 16 Este 0 -- -- 86
2019-08-06 02:00:00 16.3 8 Sudeste 17 Nordeste 0 -- -- 81
2019-08-06 01:00:00 16 9 Sudeste 14 Sudeste 0 -- -- 81
2019-08-06 00:00:00 16.6 6 Sudeste 13 Este 0 -- -- 77
2019-08-05 23:00:00 17.1 10 Sudeste 13 Sudeste 0 -- -- 76
2019-08-05 22:00:00 17.3 4 Este 12 Este 0 -- -- 81
2019-08-05 21:00:00 19.1 6 Este 15 Norte 0 -- -- 87
2019-08-05 20:00:00 19.6 8 Norte 19 Norte 0 -- -- 85
2019-08-05 19:00:00 21.9 11 Norte 24 Norte 0 -- -- 80
2019-08-05 18:00:00 21.9 15 Norte 27 Norte 0 -- -- 73
2019-08-05 17:00:00 22 17 Norte 29 Norte 0 -- -- 73
2019-08-05 16:00:00 21.7 18 Nordeste 29 Norte 0 -- -- 77
2019-08-05 15:00:00 21.7 15 Norte 26 Nordeste -- -- -- 77
2019-08-05 14:00:00 22.5 10 Norte 20 Noroeste 0 -- -- 70
2019-08-05 13:00:00 22.4 9 Noroeste 16 Noroeste 0 -- -- 77
2019-08-05 12:00:00 21.7 8 Noroeste 16 Norte 0 -- -- 75
2019-08-05 11:00:00 20.6 7 Norte 14 Norte 0 -- -- 78
2019-08-05 10:00:00 18.8 5 Norte 10 Nordeste 0 -- -- 85
2019-08-05 09:00:00 18.9 6 Norte 12 Norte 0 -- -- 86
2019-08-05 08:00:00 17.8 6 Sudeste 11 Sur 0 -- -- 83
2019-08-05 07:00:00 17.7 6 Sudeste 13 Sudeste 0 -- -- 84
2019-08-05 06:00:00 17.5 7 Sudeste 13 Sudeste 0 -- -- 84
2019-08-05 05:00:00 17.8 10 Sudeste 15 Sudeste 0 -- -- 79
2019-08-05 04:00:00 18.3 5 Este 12 Nordeste 0 -- -- 85
2019-08-05 03:00:00 18.3 5 Sudeste 12 Sur 0 -- -- 80
2019-08-05 02:00:00 18.1 4 Este 12 Norte 0 -- -- 85
2019-08-05 01:00:00 18.5 4 Nordeste 14 Este 0 -- -- 90
2019-08-05 00:00:00 18.3 5 Este 17 Este 0 -- -- 79
2019-08-04 23:00:00 17 6 Este 15 Sudeste 0 -- -- 82
2019-08-04 22:00:00 17.7 9 Sudeste 15 Este 0 -- -- 81
2019-08-04 21:00:00 19.1 10 Este 20 Norte 0 -- -- 78
2019-08-04 20:00:00 21.1 10 Nordeste 21 Norte 0 -- -- 74
2019-08-04 19:00:00 21.4 12 Norte 21 Norte 0 -- -- 74
2019-08-04 18:00:00 21.8 13 Norte 22 Norte 0 -- -- 78
2019-08-04 17:00:00 22.4 12 Noroeste 22 Norte 0 -- -- 76
2019-08-04 16:00:00 21.5 12 Norte 23 Norte 0 -- -- 76
2019-08-04 15:00:00 22.9 15 Norte 29 Nordeste 0 -- -- 66
2019-08-04 14:00:00 22 16 Norte 33 Nordeste 0 -- -- 68
2019-08-04 13:00:00 22.1 11 Nordeste 26 Nordeste 0 -- -- 64
2019-08-04 12:00:00 20.2 13 Norte 23 Norte 0 -- -- 74
2019-08-04 11:00:00 19 9 Norte 17 Norte 0 -- -- 81
2019-08-04 10:00:00 19.2 9 Sudeste 20 Sudeste 0 -- -- 71
2019-08-04 09:00:00 17.5 5 Este 13 Este 0 -- -- 80
2019-08-04 08:00:00 15.8 10 Sudeste 16 Sudeste 0 -- -- 84
2019-08-04 07:00:00 15.4 12 Sudeste 19 Sudeste 0 -- -- 83
2019-08-04 06:00:00 14.4 14 Sudeste 21 Sudeste 0 -- -- 84
2019-08-04 05:00:00 13.1 15 Sudeste 19 Sudeste 0 -- -- 72
2019-08-04 04:00:00 13.4 11 Sudeste 18 Sudeste 0 -- -- 76
2019-08-04 03:00:00 14 15 Sudeste 19 Sudeste 0 -- -- 79
2019-08-04 02:00:00 14.7 13 Sudeste 19 Este 0 -- -- 76
2019-08-04 01:00:00 14.4 13 Sudeste 19 Este 0 -- -- 76
2019-08-04 00:00:00 14.2 11 Sudeste 17 Sudeste 0 -- -- 67
2019-08-03 23:00:00 14.4 8 Sudeste 15 Sudeste 0 -- -- 76
2019-08-03 22:00:00 15.4 9 Sur 10 Sudeste 0 -- -- 85
2019-08-03 21:00:00 18 6 Norte 15 Norte 0 -- -- 85
2019-08-03 20:00:00 20.3 9 Norte 18 Nordeste 0 -- -- 76
2019-08-03 19:00:00 20.6 10 Norte 20 Norte 0 -- -- 79
2019-08-03 18:00:00 21.1 8 Norte 24 Noroeste 0 -- -- 75
2019-08-03 17:00:00 21 9 Norte 18 Norte 0 -- -- 71
2019-08-03 16:00:00 19.9 9 Norte 19 Norte 0 -- -- 82
2019-08-03 15:00:00 19.9 8 Norte 19 Norte 0 -- -- 80
2019-08-03 14:00:00 20.2 10 Norte 22 Noroeste 0 -- -- 75
2019-08-03 13:00:00 20 12 Norte 21 Norte 0 -- -- 77
2019-08-03 12:00:00 19.6 10 Norte 17 Norte 0 -- -- 76
2019-08-03 11:00:00 19.5 9 Noroeste 17 Norte 0 -- -- 77
2019-08-03 10:00:00 18.8 8 Norte 14 Norte 0 -- -- 81
2019-08-03 09:00:00 16.3 9 Sudeste 15 Sudeste 0 -- -- 82
2019-08-03 08:00:00 14.3 8 Sudeste 16 Sudeste 0 -- -- 89
2019-08-03 07:00:00 14.2 14 Sudeste 23 Sudeste 0 -- -- 87
2019-08-03 06:00:00 14.1 13 Sudeste 19 Sudeste 0 -- -- 88
2019-08-03 05:00:00 14.6 7 Sudeste 14 Este 0 -- -- 89
2019-08-03 04:00:00 13.7 9 Sur 14 Sudeste 0 -- -- 87
2019-08-03 03:00:00 15 9 Sudeste 18 Sudeste 0 -- -- 88
2019-08-03 02:00:00 14.6 9 Sudeste 18 Sudeste 0 -- -- 84
2019-08-03 01:00:00 14.7 9 Sudeste 16 Sudeste 0 -- -- 84
2019-08-03 00:00:00 15 5 Sudeste 15 Este 0 -- -- 83
2019-08-02 23:00:00 14.8 8 Sudeste 17 Este 0 -- -- 82
2019-08-02 22:00:00 15.6 9 Sudeste 12 Sudeste 0 -- -- 87
2019-08-02 21:00:00 18 9 Este 18 Norte 0 -- -- 81
2019-08-02 20:00:00 18.6 10 Norte 19 Norte 0 -- -- 79
2019-08-02 19:00:00 19.9 10 Norte 23 Norte 0 -- -- 80
2019-08-02 18:00:00 21.3 14 Norte 26 Norte 0 -- -- 74
2019-08-02 17:00:00 20.3 13 Norte 26 Norte 0 -- -- 75
2019-08-02 16:00:00 21.6 14 Norte 22 Norte 0 -- -- 69
2019-08-02 15:00:00 21.8 13 Norte 28 Norte 0 -- -- 66
2019-08-02 14:00:00 20.2 16 Norte 26 Norte 0 -- -- 74
2019-08-02 13:00:00 20.5 12 Nordeste 29 Norte 0 -- -- 72
2019-08-02 12:00:00 19.1 14 Norte 24 Nordeste 0 -- -- 80
2019-08-02 11:00:00 19.7 9 Nordeste 22 Norte 0 -- -- 76
2019-08-02 10:00:00 18.7 8 Nordeste 15 Este 0 -- -- 75
2019-08-02 09:00:00 17.5 4 Nordeste 9 Este 0 -- -- 86
2019-08-02 08:00:00 17 4 Este 17 Este 0 -- -- 85
2019-08-02 07:00:00 16.1 6 Este 13 Este 0 -- -- 85
2019-08-02 06:00:00 16.1 10 Sudeste 17 Sudeste 0 -- -- 84
2019-08-02 05:00:00 16.2 9 Este 19 Sudeste 0 -- -- 84
2019-08-02 04:00:00 15.2 10 Sudeste 21 Sudeste 0 -- -- 87
2019-08-02 03:00:00 13.2 12 Sudeste 18 Sudeste 0 -- -- 83
2019-08-02 02:00:00 13.5 14 Sudeste 19 Sudeste 0 -- -- 85
2019-08-02 01:00:00 13.9 12 Sudeste 22 Sudeste 0 -- -- 85
2019-08-02 00:00:00 14.4 13 Sudeste 19 Sudeste 0 -- -- 84
2019-08-01 23:00:00 15.3 9 Sudeste 13 Sudeste 0 -- -- 86
2019-08-01 22:00:00 17.3 3 Nordeste 14 Nordeste 0 -- -- 87
2019-08-01 21:00:00 17.5 9 Nordeste 16 Norte 0 -- -- 91
2019-08-01 20:00:00 18.6 9 Norte 17 Noroeste 0 -- -- 84
2019-08-01 19:00:00 19.8 10 Noroeste 21 Norte 0 -- -- 77
2019-08-01 18:00:00 19.9 10 Norte 22 Nordeste 0 -- -- 75
2019-08-01 17:00:00 19.6 11 Norte 22 Norte 0 -- -- 83
2019-08-01 16:00:00 20.9 11 Norte 24 Noroeste 0 -- -- 76
2019-08-01 15:00:00 20.7 14 Norte 24 Norte 0 -- -- 73
2019-08-01 14:00:00 20.1 13 Norte 22 Norte 0 -- -- 69
2019-08-01 13:00:00 19.6 10 Norte 21 Norte 0 -- -- 77
2019-08-01 12:00:00 19.1 11 Norte 18 Noroeste 0 -- -- 79
2019-08-01 11:00:00 19.7 5 Este 16 Norte 0 -- -- 74
2019-08-01 10:00:00 18.9 6 Este 15 Este 0 -- -- 72
2019-08-01 09:00:00 17.4 4 Nordeste 12 Sudeste 0 -- -- 83
2019-08-01 08:00:00 16.4 9 Sudeste 13 Sudeste 0 -- -- 81
2019-08-01 07:00:00 16.2 10 Sudeste 18 Sudeste 0 -- -- 83
2019-08-01 06:00:00 15.4 9 Sudeste 16 Sudeste 0 -- -- 85
2019-08-01 05:00:00 14.7 10 Sudeste 20 Sudeste 0 -- -- 87
2019-08-01 04:00:00 13.4 14 Sudeste 20 Sudeste 0 -- -- 89
2019-08-01 03:00:00 13.2 14 Sudeste 19 Sudeste 0 -- -- 88
2019-08-01 02:00:00 13.8 12 Sudeste 22 Sudeste 0 -- -- 90
2019-08-01 01:00:00 13.8 16 Sudeste 21 Sudeste 0 -- -- 88
2019-08-01 00:00:00 14.8 9 Sudeste 22 Sudeste 0 -- -- 84
2019-07-31 23:00:00 14.5 15 Sudeste 22 Sudeste 0 -- -- 85
2019-07-31 22:00:00 15.3 10 Sudeste 14 Sudeste 0 -- -- 86
2019-07-31 21:00:00 17.4 4 Nordeste 17 Nordeste 0 -- -- 81
2019-07-31 20:00:00 19.4 9 Norte 18 Norte 0 -- -- 73
2019-07-31 19:00:00 20 10 Norte 23 Norte 0 -- -- 72
2019-07-31 18:00:00 19.3 14 Norte 23 Nordeste 0 -- -- 71
2019-07-31 17:00:00 19.3 9 Nordeste 21 Nordeste 0 -- -- 73
2019-07-31 16:00:00 19.1 10 Norte 20 Nordeste 0 -- -- 75
2019-07-31 15:00:00 18.4 9 Norte 20 Norte 0 -- -- 84
2019-07-31 14:00:00 18.3 11 Nordeste 21 Norte 0 -- -- 79
2019-07-31 13:00:00 19.1 6 Norte 19 Norte 0 -- -- 78
2019-07-31 12:00:00 19.6 6 Norte 16 Nordeste 0 -- -- 72
2019-07-31 11:00:00 18.3 5 Norte 11 Nordeste 0 -- -- 74
2019-07-31 10:00:00 18.1 6 Sur 14 Este 0 -- -- 70
2019-07-31 09:00:00 16.2 6 Este 14 Este 0 -- -- 87
2019-07-31 08:00:00 16 8 Sudeste 18 Sudeste 0 -- -- 80
2019-07-31 07:00:00 15.5 13 Sur 18 Sur 0 -- -- 80
2019-07-31 06:00:00 15.3 4 Sudeste 6 Sudeste 0 -- -- 90
2019-07-31 05:00:00 15.6 4 Este 13 Nordeste 0 -- -- 89
2019-07-31 04:00:00 15.5 7 Sudeste 10 Nordeste 0.2 -- -- 90
2019-07-31 03:00:00 15.9 5 Nordeste 17 Sur 0 -- -- 84
2019-07-31 02:00:00 15.6 9 Sudeste 13 Sudeste 0 -- -- 89
2019-07-31 01:00:00 16.2 5 Este 17 Nordeste 0 -- -- 91
2019-07-31 00:00:00 16.1 5 Sudeste 8 Este 0 -- -- 92
2019-07-30 23:00:00 16.4 3 Sudeste 8 Norte 0 -- -- 92
2019-07-30 22:00:00 16.6 3 Sudeste 12 Sudeste 0 -- -- 92
2019-07-30 21:00:00 17.3 3 Sudeste 9 Nordeste 0 -- -- 83
2019-07-30 20:00:00 17.9 3 Norte 10 Este 0 -- -- 83
2019-07-30 19:00:00 17.7 3 Nordeste 15 Norte 0 -- -- 87
2019-07-30 18:00:00 18.1 5 Norte 18 Este 0 -- -- 87
2019-07-30 17:00:00 18.4 7 Nordeste 18 Nordeste 0 -- -- 80
2019-07-30 16:00:00 17.9 9 Nordeste 23 Nordeste 0 -- -- 85
2019-07-30 15:00:00 19 11 Norte 18 Norte 0 -- -- 88
2019-07-30 14:00:00 18.7 5 Norte 14 Nordeste 0 -- -- 83
2019-07-30 13:00:00 17.3 5 Nordeste 18 Nordeste 0.4 -- -- 95
2019-07-30 12:00:00 16.7 8 Nordeste 19 Norte 3.4 -- -- 99
2019-07-30 11:00:00 17 4 Este 19 Nordeste 1 -- -- 98
2019-07-30 10:00:00 17.3 5 Norte 15 Nordeste 1.6 -- -- 99
2019-07-30 09:00:00 16.9 7 Nordeste 16 Nordeste 0.6 -- -- 97
2019-07-30 08:00:00 17.4 4 Norte 10 Sudeste 0.2 -- -- 95
2019-07-30 07:00:00 17.6 0 Calma 17 Nordeste 0 -- -- 96
2019-07-30 06:00:00 17.8 8 Norte 22 Sur 0 -- -- 96
2019-07-30 05:00:00 18.6 4 Este 13 Nordeste 0 -- -- 84
2019-07-30 04:00:00 19 4 Norte 12 Sur 0 -- -- 81
2019-07-30 03:00:00 18.8 4 Norte 10 Noroeste 0 -- -- 84
2019-07-30 02:00:00 19.1 3 Este 13 Sudeste 0 -- -- 79
2019-07-30 01:00:00 18.9 5 Sudeste 14 Este 0 -- -- 79
2019-07-30 00:00:00 18.9 5 Este 14 Este 0 -- -- 80
2019-07-29 23:00:00 19 3 Sudeste 12 Sudeste 0 -- -- 79
2019-07-29 22:00:00 19.2 5 Sudeste 20 Este 0 -- -- 78
2019-07-29 21:00:00 19.4 7 Sudeste 20 Nordeste 0 -- -- 75
2019-07-29 20:00:00 20.4 14 Nordeste 26 Nordeste 0 -- -- 72
2019-07-29 19:00:00 21.6 13 Nordeste 28 Norte 0 -- -- 65
2019-07-29 18:00:00 21.9 13 Norte 28 Norte 0 -- -- 65
2019-07-29 17:00:00 21.1 16 Nordeste 27 Norte 0 -- -- 70
2019-07-29 16:00:00 21.6 14 Norte 28 Norte 0 -- -- 69
2019-07-29 15:00:00 21.3 15 Nordeste 27 Norte 0 -- -- 74
2019-07-29 14:00:00 21.1 15 Norte 30 Norte 0 -- -- 71
2019-07-29 13:00:00 20.9 13 Norte 26 Norte 0 -- -- 67
2019-07-29 12:00:00 20 14 Norte 24 Nordeste 0 -- -- 70
2019-07-29 11:00:00 19.7 10 Norte 19 Norte 0 -- -- 70
2019-07-29 10:00:00 18.1 8 Nordeste 16 Nordeste 0 -- -- 82
2019-07-29 09:00:00 16.4 8 Sudeste 15 Sudeste 0 -- -- 83
2019-07-29 08:00:00 15.2 11 Sudeste 14 Este 0 -- -- 87
2019-07-29 07:00:00 16.5 4 Este 9 Este 0 -- -- 85
2019-07-29 06:00:00 15.9 8 Sudeste 13 Sudeste 0 -- -- 87
2019-07-29 05:00:00 17.2 4 Este 9 Este 0 -- -- 87
2019-07-29 04:00:00 17 4 Este 14 Sudeste 0 -- -- 88
2019-07-29 03:00:00 16.3 10 Sudeste 15 Sudeste 0 -- -- 88
2019-07-29 02:00:00 15.3 10 Sudeste 14 Sudeste 0 -- -- 90
2019-07-29 01:00:00 16 12 Sudeste 15 Sudeste 0 -- -- 88
2019-07-29 00:00:00 17.1 10 Sudeste 13 Este 0 -- -- 85
2019-07-28 23:00:00 18.3 2 Sur 9 Sudeste 0 -- -- 86
2019-07-28 22:00:00 18.8 4 Este 12 Nordeste 0 -- -- 84
2019-07-28 21:00:00 19 6 Nordeste 15 Norte 0 -- -- 85
2019-07-28 20:00:00 20.9 8 Norte 17 Norte 0 -- -- 82
2019-07-28 19:00:00 22.3 9 Norte 22 Norte 0 -- -- 72
2019-07-28 18:00:00 22 11 Norte 21 Norte 0 -- -- 77
2019-07-28 17:00:00 22.6 10 Norte 24 Norte 0 -- -- 78
2019-07-28 16:00:00 22.4 12 Norte 23 Noroeste 0 -- -- 79
2019-07-28 15:00:00 22.6 14 Norte 25 Norte 0 -- -- 79
2019-07-28 14:00:00 23 11 Norte 23 Noroeste 0 -- -- 76
2019-07-28 13:00:00 21.6 12 Norte 20 Norte 0 -- -- 81
2019-07-28 12:00:00 21.3 11 Norte 21 Norte 0 -- -- 84
2019-07-28 11:00:00 20.1 7 Oeste 13 Noroeste 0 -- -- 88
2019-07-28 10:00:00 20.4 6 Noroeste 13 Norte 0 -- -- 83
2019-07-28 09:00:00 18.5 4 Nordeste 21 Este 0 -- -- 89
2019-07-28 08:00:00 16.2 9 Sudeste 19 Sudeste 0 -- -- 90
2019-07-28 07:00:00 15.8 9 Sudeste 14 Sudeste 0 -- -- 92
2019-07-28 06:00:00 16 6 Sudeste 18 Este 0 -- -- 91
2019-07-28 05:00:00 16.4 8 Sudeste 16 Sudeste 0 -- -- 92
2019-07-28 04:00:00 17.9 8 Sudeste 15 Sudeste 0 -- -- 91
2019-07-28 03:00:00 17.9 6 Sudeste 17 Nordeste 0 -- -- 89
2019-07-28 02:00:00 17.9 8 Este 28 Este 0 -- -- 88
2019-07-28 01:00:00 15.3 10 Sudeste 17 Sudeste 0 -- -- 81
2019-07-28 00:00:00 14.4 7 Sudeste 14 Sur 0 -- -- 71
2019-07-27 23:00:00 15 10 Sudeste 18 Este 0 -- -- 69
2019-07-27 22:00:00 15.7 4 Sudeste 13 Sur 0 -- -- 85
2019-07-26 11:00:00 20.6 9 Norte 17 Norte 0 -- -- 85
2019-07-26 10:00:00 20.1 3 Noroeste 8 Noroeste 0 -- -- 82
2019-07-26 09:00:00 18.8 0 Calma 6 Sudeste 0 -- -- 65
2019-07-26 08:00:00 15.8 4 Sur 10 Sudeste 0 -- -- 69
2019-07-26 07:00:00 15.5 4 Sudeste 13 Sudeste 0 -- -- 67
2019-07-26 06:00:00 15 8 Sur 13 Sudeste 0 -- -- 66
2019-07-26 05:00:00 15.7 6 Sur 12 Sudeste 0 -- -- 72
2019-07-26 04:00:00 16.4 6 Sudoeste 13 Sudeste 0 -- -- 71
2019-07-26 03:00:00 16.7 10 Sur 16 Sur 0 -- -- 74
2019-07-26 02:00:00 17.8 7 Este 14 Sudeste 0 -- -- 66
2019-07-26 01:00:00 16.6 6 Este 15 Sudeste 0 -- -- 72
2019-07-26 00:00:00 15.9 8 Sudeste 13 Sudeste 0 -- -- 60